Time;durP1;ratioP1;P1;durP2;ratioP2;P2;SDS_P1;SDS_P2;PMS_P1;PMS_P2;Temp;Humidity;BMP_temperature;BMP_pressure;BME280_temperature;BME280_humidity;BME280_pressure;Samples;Min_cycle;Max_cycle;Signal;HPM_P1;HPM_P2
2022/01/25 00:08:43;;;;;;;25.88;11.38;;;;;;;-7.32;65.28;100927.56;5080652;28;20430;-64
2022/01/25 00:25:07;;;;;;;26.65;11.98;;;;;;;-7.28;64.92;100933.66;5096804;28;20024;-63
2022/01/25 00:32:49;;;;;;;22.80;10.37;;;;;;;-7.19;64.83;100918.16;5097804;28;20404;-64
2022/01/25 00:35:15;;;;;;;26.55;10.63;;;;;;;-7.29;64.46;100903.28;5098767;28;20029;-63
2022/01/25 00:37:40;;;;;;;24.85;10.50;;;;;;;-7.26;64.57;100919.81;5105463;28;20032;-62
2022/01/25 00:40:06;;;;;;;20.33;9.93;;;;;;;-7.29;64.52;100913.69;5093826;28;20484;-62
2022/01/25 00:42:31;;;;;;;22.15;10.35;;;;;;;-7.32;64.75;100901.53;5104312;28;20038;-63
2022/01/25 00:44:57;;;;;;;21.50;10.13;;;;;;;-7.35;64.65;100920.59;5098696;28;20052;-64
2022/01/25 00:47:25;;;;;;;25.83;10.07;;;;;;;-7.37;64.59;100914.50;5097575;28;20036;-64
2022/01/25 00:49:52;;;;;;;22.15;9.68;;;;;;;-7.39;64.60;100913.59;5107205;28;20032;-64
2022/01/25 00:54:47;;;;;;;22.75;10.80;;;;;;;-7.46;64.58;100906.59;5102356;28;20032;-64
2022/01/25 00:57:12;;;;;;;22.88;9.50;;;;;;;-7.48;64.47;100903.09;5101248;28;20036;-63
2022/01/25 00:59:38;;;;;;;21.60;10.25;;;;;;;-7.46;64.74;100897.91;5096256;28;20032;-64
2022/01/25 01:02:10;;;;;;;22.05;10.07;;;;;;;-7.68;64.84;100862.16;5110246;28;20034;-62
2022/01/25 01:04:36;;;;;;;21.52;9.88;;;;;;;-7.50;64.76;100878.78;5099383;28;20031;-63
2022/01/25 01:07:03;;;;;;;20.88;8.90;;;;;;;-7.68;64.66;100848.25;5103545;28;20036;-63
2022/01/25 01:09:34;;;;;;;20.80;8.43;;;;;;;-7.49;64.68;100867.53;5105556;28;20046;-62
2022/01/25 01:12:06;;;;;;;20.60;9.23;;;;;;;-7.73;64.77;100819.59;5096560;28;20028;-63
2022/01/25 01:17:38;;;;;;;21.15;9.27;;;;;;;-7.46;64.89;100858.88;5104840;28;20046;-63
2022/01/25 01:44:19;;;;;;;19.90;9.73;;;;;;;-7.29;64.64;100802.69;5095687;28;20150;-62
2022/01/25 01:46:59;;;;;;;25.67;10.23;;;;;;;-7.34;64.76;100793.97;5104742;28;20109;-62
2022/01/25 01:49:27;;;;;;;20.55;10.02;;;;;;;-7.39;64.65;100783.53;5092325;28;20093;-64
2022/01/25 01:51:52;;;;;;;21.30;10.18;;;;;;;-7.35;65.09;100789.63;5109580;28;20032;-62
2022/01/25 01:54:18;;;;;;;21.75;9.50;;;;;;;-7.40;65.39;100766.16;5096356;28;20034;-62
2022/01/25 01:56:44;;;;;;;21.98;10.10;;;;;;;-7.32;65.71;100781.84;5105453;28;20123;-62
2022/01/25 01:59:16;;;;;;;20.23;9.50;;;;;;;-7.26;65.38;100786.22;5103400;28;20066;-62
2022/01/25 02:01:44;;;;;;;20.45;9.30;;;;;;;-7.26;65.21;100781.00;5097135;28;20024;-65
2022/01/25 02:04:11;;;;;;;23.65;10.32;;;;;;;-7.19;65.21;100775.00;5109167;28;20119;-63
2022/01/25 02:06:37;;;;;;;22.35;9.88;;;;;;;-7.17;64.78;100775.91;5098966;28;20039;-62
2022/01/25 02:09:05;;;;;;;20.33;9.73;;;;;;;-7.18;64.86;100768.94;5112416;28;20076;-61
2022/01/25 02:11:31;;;;;;;21.45;9.30;;;;;;;-7.13;65.14;100764.63;5098353;28;20407;-63
2022/01/25 02:14:02;;;;;;;23.10;9.60;;;;;;;-7.11;65.42;100762.91;5109187;28;20489;-63
2022/01/25 02:24:44;;;;;;;22.30;9.88;;;;;;;-7.04;64.40;100761.22;5099169;28;20034;-62
2022/01/25 02:27:10;;;;;;;19.17;9.75;;;;;;;-7.05;65.12;100767.31;5101185;28;20036;-60
2022/01/25 02:29:36;;;;;;;22.33;10.30;;;;;;;-7.02;65.03;100745.59;5106080;28;20024;-59
2022/01/25 02:32:03;;;;;;;21.80;9.98;;;;;;;-6.99;65.16;100750.81;5095172;28;20426;-61
2022/01/25 02:34:28;;;;;;;22.42;10.70;;;;;;;-7.15;65.33;100721.22;5107386;28;20039;-62
2022/01/25 02:37:03;;;;;;;23.52;11.23;;;;;;;-6.88;65.12;100753.50;5100447;28;20027;-64
2022/01/25 02:39:30;;;;;;;22.45;10.20;;;;;;;-6.86;64.69;100752.66;5097842;28;20028;-59
2022/01/25 02:41:56;;;;;;;18.27;8.55;;;;;;;-6.85;64.71;100745.75;5108276;28;20095;-61
2022/01/25 02:44:25;;;;;;;18.65;9.40;;;;;;;-6.92;64.36;100731.81;5096353;28;20032;-62
2022/01/25 02:49:28;;;;;;;21.98;9.43;;;;;;;-6.94;64.14;100729.19;5104508;28;20085;-61
2022/01/25 02:51:54;;;;;;;20.30;8.80;;;;;;;-7.01;63.92;100731.72;5094819;28;20476;-64
2022/01/25 02:54:20;;;;;;;21.60;9.00;;;;;;;-7.12;64.25;100729.06;5107976;28;20103;-60
2022/01/25 02:56:46;;;;;;;21.23;9.63;;;;;;;-7.18;64.64;100735.13;5098190;28;20150;-59
2022/01/25 02:59:14;;;;;;;19.42;8.48;;;;;;;-7.23;64.76;100721.22;5099767;28;20101;-62
2022/01/25 03:01:41;;;;;;;23.83;9.13;;;;;;;-7.28;65.28;100721.16;5105976;28;20031;-62
2022/01/25 03:04:08;;;;;;;24.75;9.13;;;;;;;-7.34;64.97;100702.91;5092997;28;20475;-61
2022/01/25 03:06:34;;;;;;;18.02;8.82;;;;;;;-7.18;65.04;100716.91;5105328;28;20512;-62
2022/01/25 03:09:02;;;;;;;17.85;8.68;;;;;;;-7.14;65.24;100722.97;5100348;28;20137;-63
2022/01/25 03:11:27;;;;;;;19.15;9.13;;;;;;;-7.08;65.30;100717.84;5097542;28;20024;-60
2022/01/25 03:13:57;;;;;;;19.95;9.27;;;;;;;-7.05;64.73;100702.22;5107439;28;20046;-61
2022/01/25 03:16:38;;;;;;;15.18;7.88;;;;;;;-7.02;64.63;100703.97;5095306;28;20028;-62
2022/01/25 03:19:29;;;;;;;19.90;8.77;;;;;;;-7.02;65.05;100703.97;5100871;28;20027;-62
2022/01/25 03:21:52;;;;;;;17.88;8.48;;;;;;;-7.03;64.50;100699.63;5105614;28;20035;-62
2022/01/25 03:24:18;;;;;;;17.67;8.02;;;;;;;-7.06;64.87;100687.47;5094286;28;20407;-61
2022/01/25 03:26:43;;;;;;;18.77;8.88;;;;;;;-7.03;64.53;100694.41;5103775;28;20042;-61
2022/01/25 03:29:09;;;;;;;17.95;8.48;;;;;;;-7.12;64.86;100679.59;5101559;28;20027;-62
2022/01/25 03:31:35;;;;;;;18.95;8.80;;;;;;;-7.28;64.20;100656.13;5095974;28;20028;-63
2022/01/25 03:34:00;;;;;;;18.65;8.55;;;;;;;-7.16;64.16;100683.94;5107725;28;20031;-62
2022/01/25 03:36:26;;;;;;;17.42;8.05;;;;;;;-7.17;64.26;100679.59;5095005;28;20115;-63
2022/01/25 03:38:52;;;;;;;21.70;9.50;;;;;;;-7.09;64.09;100687.47;5102313;28;20028;-61
2022/01/25 03:41:18;;;;;;;18.23;9.25;;;;;;;-7.18;64.68;100677.84;5102815;28;20156;-63
2022/01/25 03:43:51;;;;;;;18.58;8.95;;;;;;;-7.15;64.47;100682.19;5094992;28;20194;-62
2022/01/25 03:46:26;;;;;;;19.58;9.15;;;;;;;-7.25;64.20;100652.63;5077412;28;20074;-58
2022/01/25 03:51:36;;;;;;;17.42;8.25;;;;;;;-7.06;64.09;100670.09;5105600;28;20047;-62
2022/01/25 03:54:02;;;;;;;23.23;9.45;;;;;;;-7.07;64.26;100670.97;5092199;28;20044;-62
2022/01/25 03:56:28;;;;;;;21.88;9.82;;;;;;;-7.09;64.36;100667.50;5104068;28;20036;-62
2022/01/25 03:58:53;;;;;;;23.13;10.10;;;;;;;-7.22;64.63;100647.47;5099581;28;20116;-61
2022/01/25 04:01:19;;;;;;;22.48;10.38;;;;;;;-7.17;64.60;100656.19;5098535;28;20024;-63
2022/01/25 04:03:57;;;;;;;20.38;9.40;;;;;;;-7.23;65.06;100637.94;5105881;28;20098;-62
2022/01/25 04:06:24;;;;;;;23.15;10.65;;;;;;;-7.13;65.00;100642.31;5078893;28;20024;-61
2022/01/25 04:08:50;;;;;;;22.63;10.60;;;;;;;-7.09;65.00;100646.66;5102529;28;20051;-62
2022/01/25 04:11:16;;;;;;;25.17;11.23;;;;;;;-7.07;65.08;100642.34;5102171;28;20467;-62
2022/01/25 04:13:41;;;;;;;25.27;11.05;;;;;;;-7.09;64.61;100641.47;5094518;28;20027;-64
2022/01/25 04:16:15;;;;;;;24.20;10.85;;;;;;;-7.09;65.00;100640.59;5106602;28;20031;-61
2022/01/25 04:26:50;;;;;;;26.75;11.60;;;;;;;-7.15;65.17;100631.03;5098135;28;20035;-60
2022/01/25 04:29:16;;;;;;;24.30;10.73;;;;;;;-7.22;65.05;100624.06;5098708;28;20089;-62
2022/01/25 04:31:42;;;;;;;25.50;11.00;;;;;;;-7.22;64.79;100629.25;5105396;28;20416;-62
2022/01/25 04:34:24;;;;;;;26.25;11.05;;;;;;;-7.41;64.96;100590.13;5093487;28;20024;-61
2022/01/25 04:53:14;;;;;;;26.17;11.52;;;;;;;-7.17;65.01;100606.72;5103498;28;20395;-63
2022/01/25 04:55:48;;;;;;;27.77;12.10;;;;;;;-7.14;65.37;100609.34;5108081;28;20039;-62
2022/01/25 04:58:22;;;;;;;26.17;11.23;;;;;;;-7.15;65.44;100593.69;5096361;28;20027;-61
2022/01/25 05:00:49;;;;;;;26.92;11.57;;;;;;;-7.15;65.08;100589.38;5105421;28;20432;-61
2022/01/25 05:03:21;;;;;;;29.40;11.80;;;;;;;-7.11;65.00;100590.28;5104779;28;20027;-62
2022/01/25 05:06:03;;;;;;;27.83;12.35;;;;;;;-7.15;65.13;100578.09;5097378;28;20099;-62
2022/01/25 05:08:35;;;;;;;30.98;12.70;;;;;;;-7.18;65.47;100578.97;5083502;28;20024;-62
2022/01/25 05:11:12;;;;;;;31.40;13.43;;;;;;;-7.22;65.74;100577.22;5103294;28;20067;-62
2022/01/25 05:16:37;;;;;;;31.65;13.30;;;;;;;-7.24;65.41;100568.50;5061786;28;20146;-62
2022/01/25 05:22:04;;;;;;;28.52;13.40;;;;;;;-7.16;65.31;100563.34;5109271;28;20032;-62
2022/01/25 05:24:32;;;;;;;33.40;14.57;;;;;;;-7.35;65.13;100535.50;5083612;28;20027;-63
2022/01/25 05:26:57;;;;;;;32.45;14.18;;;;;;;-7.35;65.48;100540.72;5103778;28;20039;-63
2022/01/25 05:29:23;;;;;;;33.25;14.45;;;;;;;-7.18;65.74;100560.75;5106051;28;20107;-63
2022/01/25 05:31:48;;;;;;;32.67;12.93;;;;;;;-7.12;65.45;100568.56;5096131;28;20107;-62
2022/01/25 05:34:14;;;;;;;30.17;13.15;;;;;;;-7.09;64.77;100563.38;5108840;28;20274;-64
2022/01/25 05:36:42;;;;;;;35.95;12.68;;;;;;;-7.09;65.16;100547.75;5097942;28;20493;-63
2022/01/25 05:39:12;;;;;;;30.88;13.63;;;;;;;-7.13;64.99;100540.81;5101843;28;20079;-63
2022/01/25 05:41:40;;;;;;;33.33;14.23;;;;;;;-7.14;64.98;100535.59;5106748;28;20378;-62
2022/01/25 05:49:23;;;;;;;34.88;14.77;;;;;;;-7.14;65.01;100514.75;5105326;28;20035;-64
2022/01/25 05:51:49;;;;;;;36.38;14.95;;;;;;;-7.08;65.00;100520.88;5094735;28;20107;-62
2022/01/25 05:54:14;;;;;;;38.60;15.02;;;;;;;-7.20;65.38;100492.22;5109171;28;20040;-62
2022/01/25 05:56:40;;;;;;;39.58;15.07;;;;;;;-7.00;65.38;100515.69;5099634;28;20036;-63
2022/01/25 05:59:05;;;;;;;34.85;14.60;;;;;;;-7.06;65.47;100502.66;5101990;28;20028;-63
2022/01/25 06:01:32;;;;;;;35.47;14.88;;;;;;;-6.92;65.36;100513.97;5106330;28;20034;-64
2022/01/25 06:03:58;;;;;;;36.10;15.05;;;;;;;-6.92;65.24;100519.16;5096062;28;20031;-61
2022/01/25 06:06:24;;;;;;;36.22;14.93;;;;;;;-6.86;65.69;100520.91;5108324;28;20089;-61
2022/01/25 06:08:49;;;;;;;39.97;16.05;;;;;;;-6.89;65.28;100501.81;5100133;28;20032;-63
2022/01/25 06:11:15;;;;;;;40.35;15.50;;;;;;;-6.94;65.41;100494.00;5100509;28;20490;-64
2022/01/25 06:13:40;;;;;;;35.78;14.73;;;;;;;-6.90;64.99;100481.84;5092488;28;20036;-63
2022/01/25 06:16:06;;;;;;;40.30;15.35;;;;;;;-6.69;65.16;100509.69;5109355;28;20028;-64
2022/01/25 06:18:32;;;;;;;37.00;15.23;;;;;;;-6.67;65.11;100500.13;5097606;28;20028;-63
2022/01/25 06:20:57;;;;;;;38.88;15.82;;;;;;;-6.67;64.67;100503.59;5102860;28;20024;-63
2022/01/25 06:23:22;;;;;;;36.85;15.60;;;;;;;-6.67;65.27;100500.13;5105234;28;20028;-63
2022/01/25 06:25:48;;;;;;;38.03;15.63;;;;;;;-6.62;64.48;100495.78;5095831;28;20375;-64
2022/01/25 06:28:13;;;;;;;40.00;16.27;;;;;;;-6.61;64.37;100486.25;5108425;28;20035;-65
2022/01/25 06:30:40;;;;;;;36.70;15.55;;;;;;;-6.66;65.18;100478.41;5098015;28;20137;-63
2022/01/25 06:33:09;;;;;;;39.05;15.88;;;;;;;-6.64;64.54;100471.47;5101877;28;20028;-63
2022/01/25 06:35:34;;;;;;;44.25;15.45;;;;;;;-6.56;64.58;100477.53;5106378;28;20110;-63
2022/01/25 06:38:00;;;;;;;38.40;14.32;;;;;;;-6.59;64.61;100469.72;5092842;28;20166;-63
2022/01/25 06:40:27;;;;;;;40.72;15.85;;;;;;;-6.53;64.98;100456.69;5092030;27;20044;-64
2022/01/25 06:42:53;;;;;;;36.75;15.02;;;;;;;-6.65;65.05;100417.66;5091418;28;20081;-64
2022/01/25 06:45:21;;;;;;;36.95;15.18;;;;;;;-6.39;65.13;100455.84;5091804;28;20044;-63
2022/01/25 06:47:48;;;;;;;34.40;15.15;;;;;;;-6.35;64.55;100447.13;5092307;28;20036;-63
2022/01/25 06:50:16;;;;;;;37.22;15.18;;;;;;;-6.26;64.54;100446.25;5107733;28;20035;-63
2022/01/25 06:52:43;;;;;;;35.17;14.07;;;;;;;-6.22;64.34;100430.63;5098020;28;20044;-62
2022/01/25 06:55:11;;;;;;;32.88;14.55;;;;;;;-6.09;63.72;100428.88;5100489;28;20048;-63
2022/01/25 06:57:38;;;;;;;30.30;13.20;;;;;;;-5.99;64.26;100434.91;5105217;28;20070;-62
2022/01/25 07:00:10;;;;;;;39.78;15.07;;;;;;;-5.90;63.47;100439.22;5094311;28;20020;-64
2022/01/25 07:02:36;;;;;;;36.78;13.73;;;;;;;-5.80;62.89;100429.59;5105609;28;20042;-64
2022/01/25 07:05:02;;;;;;;35.22;14.80;;;;;;;-5.72;62.62;100427.84;5100594;28;20027;-63
2022/01/25 07:07:29;;;;;;;30.52;13.02;;;;;;;-5.73;62.68;100420.91;5097833;28;20081;-64
2022/01/25 07:09:55;;;;;;;36.20;15.30;;;;;;;-5.91;62.40;100391.41;5108284;28;20114;-63
2022/01/25 07:12:21;;;;;;;35.03;14.65;;;;;;;-5.64;62.00;100428.66;5095340;28;20543;-63
2022/01/25 07:14:47;;;;;;;32.20;14.07;;;;;;;-5.61;62.31;100419.97;5103442;28;20024;-64
2022/01/25 07:17:13;;;;;;;36.22;15.95;;;;;;;-5.52;62.35;100422.53;5103058;28;20421;-63
2022/01/25 07:19:38;;;;;;;39.97;15.48;;;;;;;-5.44;62.03;100414.66;5094696;28;20024;-62
2022/01/25 07:22:04;;;;;;;37.15;15.50;;;;;;;-5.38;62.03;100411.16;5107818;28;20028;-63
2022/01/25 07:24:29;;;;;;;33.40;15.35;;;;;;;-5.34;61.88;100418.94;5097154;28;20031;-62
2022/01/25 07:26:55;;;;;;;36.20;15.45;;;;;;;-5.33;61.39;100417.22;5102326;28;20111;-63
2022/01/25 07:29:21;;;;;;;35.58;15.20;;;;;;;-5.38;61.66;100406.78;5098545;28;20119;-62
2022/01/25 07:31:47;;;;;;;36.85;15.55;;;;;;;-5.27;61.57;100424.16;5094876;28;20110;-63
2022/01/25 07:34:12;;;;;;;36.13;15.43;;;;;;;-5.30;61.56;100411.97;5102367;28;20015;-62
2022/01/25 07:36:39;;;;;;;33.88;14.18;;;;;;;-5.20;60.87;100423.25;5102283;28;20038;-62
2022/01/25 07:39:05;;;;;;;31.08;14.32;;;;;;;-5.27;61.41;100419.78;5099808;28;20114;-63
2022/01/25 07:41:31;;;;;;;31.52;13.02;;;;;;;-5.30;61.44;100411.13;5092172;28;20057;-62
2022/01/25 07:43:59;;;;;;;32.25;13.90;;;;;;;-5.35;61.36;100405.94;5107810;28;20115;-63
2022/01/25 07:46:25;;;;;;;33.53;14.75;;;;;;;-5.30;60.92;100403.31;5085922;28;20043;-64
2022/01/25 07:48:50;;;;;;;28.13;13.02;;;;;;;-5.28;61.38;100396.31;5104103;28;20084;-64
2022/01/25 07:51:17;;;;;;;25.95;12.63;;;;;;;-5.34;61.45;100390.25;5102076;28;20046;-64
2022/01/25 07:53:44;;;;;;;30.05;12.90;;;;;;;-5.28;61.32;100383.28;5096303;28;20020;-64
2022/01/25 07:56:10;;;;;;;27.58;12.70;;;;;;;-5.19;61.37;100377.97;5107352;28;20054;-64
2022/01/25 07:58:36;;;;;;;23.13;12.23;;;;;;;-5.16;60.95;100377.94;5095889;28;20035;-64
2022/01/25 08:01:01;;;;;;;29.02;12.68;;;;;;;-5.18;61.10;100374.50;5102477;28;20024;-65
2022/01/25 08:03:27;;;;;;;29.73;13.95;;;;;;;-5.21;61.17;100356.25;5102118;28;20080;-65
2022/01/25 08:05:53;;;;;;;30.23;13.02;;;;;;;-5.40;60.77;100322.44;5094619;28;20356;-63
2022/01/25 08:08:19;;;;;;;26.98;11.98;;;;;;;-5.12;61.04;100356.16;5108195;28;20072;-64
2022/01/25 08:10:44;;;;;;;28.63;12.20;;;;;;;-5.09;61.02;100343.06;5101691;28;20395;-63
2022/01/25 08:13:10;;;;;;;29.98;13.00;;;;;;;-5.05;60.71;100333.47;5104747;28;20059;-63
2022/01/25 08:15:36;;;;;;;29.30;13.10;;;;;;;-4.99;60.84;100329.97;5107894;28;20460;-65
2022/01/25 08:18:01;;;;;;;26.75;11.82;;;;;;;-5.21;60.64;100284.00;5097109;28;20028;-64
2022/01/25 08:20:27;;;;;;;28.75;13.80;;;;;;;-4.91;60.55;100334.25;5111596;27;20028;-65
2022/01/25 08:22:52;;;;;;;27.48;11.93;;;;;;;-4.85;60.16;100317.63;5102287;28;20068;-63
2022/01/25 08:25:19;;;;;;;29.38;12.75;;;;;;;-4.83;60.37;100308.03;5103415;28;20024;-65
2022/01/25 08:27:46;;;;;;;26.10;12.43;;;;;;;-4.78;60.04;100308.00;5109316;28;20483;-64
2022/01/25 08:30:12;;;;;;;27.90;12.50;;;;;;;-4.74;60.06;100311.47;5097953;28;20032;-63
2022/01/25 08:32:37;;;;;;;26.67;12.30;;;;;;;-4.68;59.95;100308.78;5109406;28;20117;-63
2022/01/25 08:35:03;;;;;;;29.33;12.00;;;;;;;-4.63;60.33;100301.75;5103144;28;20023;-64
2022/01/25 08:37:29;;;;;;;25.00;12.10;;;;;;;-4.54;60.32;100308.63;5101980;28;20077;-62
2022/01/25 08:39:54;;;;;;;23.25;11.82;;;;;;;-4.67;59.93;100263.47;5111107;28;20031;-65
2022/01/25 08:42:21;;;;;;;22.88;11.35;;;;;;;-4.56;59.92;100277.31;5097408;28;20091;-63
2022/01/25 08:44:47;;;;;;;22.73;10.48;;;;;;;-4.60;59.45;100270.34;5107503;28;20050;-64
2022/01/25 08:47:12;;;;;;;22.55;11.07;;;;;;;-4.36;59.70;100297.09;5089821;28;20032;-64
2022/01/25 08:49:39;;;;;;;21.25;10.88;;;;;;;-4.30;59.50;100299.66;5107985;28;20494;-64
2022/01/25 08:52:05;;;;;;;23.42;11.10;;;;;;;-4.31;59.84;100305.78;5096029;28;20062;-65
2022/01/25 08:54:31;;;;;;;22.63;10.43;;;;;;;-4.35;59.70;100293.59;5108532;28;20036;-65
2022/01/25 08:56:57;;;;;;;22.58;11.25;;;;;;;-4.24;59.72;100296.97;5101855;28;20023;-68
2022/01/25 08:59:23;;;;;;;23.38;10.98;;;;;;;-4.15;59.91;100298.59;5101542;28;20028;-65
2022/01/25 09:01:48;;;;;;;20.48;10.57;;;;;;;-4.20;59.38;100259.44;5106590;28;20364;-64
2022/01/25 09:04:14;;;;;;;22.90;10.65;;;;;;;-4.04;58.99;100277.56;5097116;28;20106;-64
2022/01/25 09:06:40;;;;;;;20.92;10.27;;;;;;;-4.05;59.14;100275.81;5108239;28;20039;-63
2022/01/25 09:09:08;;;;;;;19.88;10.10;;;;;;;-4.01;59.11;100276.63;5102801;28;20024;-64
2022/01/25 09:11:39;;;;;;;29.95;13.30;;;;;;;-3.99;59.18;100262.66;5100646;28;20357;-63
2022/01/25 09:14:05;;;;;;;26.42;12.23;;;;;;;-4.03;59.47;100255.75;5110240;28;20028;-64
2022/01/25 09:16:32;;;;;;;19.85;10.43;;;;;;;-3.97;59.15;100250.41;5096592;28;20020;-65
2022/01/25 09:18:58;;;;;;;18.30;10.48;;;;;;;-3.93;58.75;100251.25;5105579;28;20024;-64
2022/01/25 09:21:24;;;;;;;24.77;10.27;;;;;;;-3.93;58.93;100244.25;5103058;28;20026;-63
2022/01/25 09:23:50;;;;;;;20.20;9.95;;;;;;;-4.05;59.41;100223.50;5096224;28;20064;-62
2022/01/25 09:26:16;;;;;;;22.63;10.63;;;;;;;-3.84;59.23;100237.19;5108391;28;20374;-62
2022/01/25 09:28:42;;;;;;;21.15;10.95;;;;;;;-3.72;58.81;100236.13;5096345;28;20016;-64
2022/01/25 09:31:07;;;;;;;21.02;10.25;;;;;;;-3.71;58.82;100220.38;5101308;28;20050;-62
2022/01/25 09:33:33;;;;;;;20.35;9.95;;;;;;;-3.63;59.18;100222.88;5104274;28;20080;-62
2022/01/25 09:35:59;;;;;;;16.60;8.93;;;;;;;-3.69;58.37;100218.59;5109032;28;20046;-61
2022/01/25 09:38:25;;;;;;;15.55;8.05;;;;;;;-3.73;58.86;100213.47;5095770;28;20445;-63
2022/01/25 09:40:52;;;;;;;15.50;7.97;;;;;;;-3.77;58.82;100220.50;5104431;28;20024;-63
2022/01/25 09:43:19;;;;;;;18.40;9.10;;;;;;;-3.87;59.32;100218.88;5103726;28;20513;-62
2022/01/25 09:45:45;;;;;;;15.85;8.10;;;;;;;-4.14;58.98;100173.94;5098693;28;20079;-62
2022/01/25 09:48:11;;;;;;;16.98;8.63;;;;;;;-4.00;59.41;100192.03;5109972;28;20086;-63
2022/01/25 09:50:38;;;;;;;14.63;7.85;;;;;;;-4.05;59.43;100206.06;5097943;28;20031;-63
2022/01/25 09:53:05;;;;;;;16.85;7.75;;;;;;;-4.08;59.18;100194.78;5103807;27;20055;-62
2022/01/25 09:55:34;;;;;;;14.70;7.78;;;;;;;-4.14;59.33;100190.50;5106396;28;20085;-62
2022/01/25 09:58:00;;;;;;;17.25;7.85;;;;;;;-4.28;59.91;100182.84;5096267;28;20543;-62
2022/01/25 10:00:29;;;;;;;16.23;7.60;;;;;;;-4.32;59.59;100168.94;5108105;28;20027;-63
2022/01/25 10:05:36;;;;;;;16.13;8.10;;;;;;;-4.35;60.24;100162.88;5110203;28;20032;-68
2022/01/25 10:08:05;;;;;;;16.17;8.10;;;;;;;-4.30;60.12;100157.59;5100211;28;20024;-67
2022/01/25 10:10:33;;;;;;;16.23;8.23;;;;;;;-4.33;60.22;100159.38;5102004;28;20059;-63
2022/01/25 10:13:12;;;;;;;17.40;7.90;;;;;;;-4.26;60.43;100165.41;5107338;28;20028;-64
2022/01/25 10:15:38;;;;;;;16.35;8.23;;;;;;;-4.26;59.59;100151.44;5084958;28;20031;-64
2022/01/25 10:18:04;;;;;;;17.85;7.97;;;;;;;-4.34;59.73;100130.63;5105779;28;20456;-63
2022/01/25 10:20:33;;;;;;;17.48;8.48;;;;;;;-4.28;59.87;100133.19;5102701;28;20032;-64
2022/01/25 10:23:01;;;;;;;19.08;8.02;;;;;;;-4.27;59.35;100119.22;5097860;28;20088;-63
2022/01/25 10:25:43;;;;;;;16.33;7.70;;;;;;;-4.09;59.18;100130.31;5108329;28;20031;-65
2022/01/25 10:28:12;;;;;;;17.67;8.65;;;;;;;-4.09;59.46;100127.69;5100029;28;20020;-66
2022/01/25 10:30:44;;;;;;;17.20;8.73;;;;;;;-4.01;59.70;100115.34;5100217;28;20065;-64
2022/01/25 10:33:42;;;;;;;17.27;8.45;;;;;;;-3.79;58.84;100112.38;5108921;28;20043;-66
2022/01/25 10:36:16;;;;;;;16.77;8.27;;;;;;;-3.80;58.96;100101.03;5087034;28;20032;-65
2022/01/25 10:38:45;;;;;;;14.57;8.05;;;;;;;-3.78;58.83;100103.63;5099367;28;20059;-67
2022/01/25 10:41:19;;;;;;;14.50;7.38;;;;;;;-3.84;58.87;100083.66;5108579;28;20044;-65
2022/01/25 10:43:48;;;;;;;21.48;8.55;;;;;;;-3.92;58.86;100090.78;5079593;28;20417;-66
2022/01/25 10:46:22;;;;;;;16.10;8.25;;;;;;;-4.07;59.34;100081.44;5103372;28;20043;-65
2022/01/25 10:48:57;;;;;;;16.40;8.10;;;;;;;-4.09;59.20;100072.78;5104967;28;20027;-65
2022/01/25 10:51:30;;;;;;;;;;;;;;;-3.89;59.50;100073.28;5095929;28;20040;-64
2022/01/25 10:54:17;;;;;;;13.82;7.15;;;;;;;-4.07;59.48;100057.91;5106511;28;19912;-63
2022/01/25 10:56:57;;;;;;;13.85;7.65;;;;;;;-3.98;59.10;100059.47;5103200;28;20036;-65
2022/01/25 10:59:29;;;;;;;14.73;7.60;;;;;;;-4.00;59.45;100062.13;5093984;28;20031;-67
2022/01/25 11:01:58;;;;;;;16.42;7.88;;;;;;;-4.00;59.10;100049.06;5106718;28;20437;-65
2022/01/25 11:04:31;;;;;;;15.05;7.68;;;;;;;-4.18;58.93;100011.88;5101020;28;20046;-65
2022/01/25 11:07:08;;;;;;;14.27;6.90;;;;;;;-3.98;59.40;100038.56;5097524;28;20039;-65
2022/01/25 11:09:38;;;;;;;13.52;6.68;;;;;;;-4.07;59.34;100035.22;5106955;28;20585;-68
2022/01/25 11:12:07;;;;;;;14.43;7.47;;;;;;;-4.07;59.22;100035.22;5098186;28;20028;-67
2022/01/25 11:14:53;;;;;;;15.00;7.50;;;;;;;-4.13;59.54;100018.75;5101402;28;20408;-64
2022/01/25 11:17:23;;;;;;;13.65;7.00;;;;;;;-4.04;58.90;100036.94;5108532;28;20038;-64
2022/01/25 11:19:49;;;;;;;16.02;8.02;;;;;;;-3.99;59.10;100021.13;5096270;28;20024;-64
2022/01/25 11:22:20;;;;;;;15.02;7.03;;;;;;;-3.97;58.71;100015.00;5103164;28;20043;-65
2022/01/25 11:24:51;;;;;;;16.13;8.18;;;;;;;-4.09;58.89;99994.31;5086130;28;20164;-66
2022/01/25 11:27:19;;;;;;;14.95;7.38;;;;;;;-4.01;59.01;100020.31;5094298;28;20028;-65
2022/01/25 11:29:45;;;;;;;14.48;7.50;;;;;;;-4.26;59.18;99966.69;5106668;28;20020;-65
2022/01/25 11:32:17;;;;;;;16.90;8.23;;;;;;;-4.03;59.24;100005.50;5099711;28;20463;-65
2022/01/25 11:34:45;;;;;;;16.48;8.23;;;;;;;-4.09;59.10;99986.47;5098730;28;20046;-69
2022/01/25 11:37:11;;;;;;;17.48;8.13;;;;;;;-4.05;59.35;99999.44;5107253;28;20024;-68
2022/01/25 11:39:49;;;;;;;16.83;8.68;;;;;;;-4.02;59.48;99995.91;5094519;28;20038;-72
2022/01/25 11:42:23;;;;;;;16.27;7.72;;;;;;;-4.09;59.03;99987.31;5103217;28;20376;-66
2022/01/25 11:44:57;;;;;;;13.85;7.47;;;;;;;-4.10;59.64;99984.72;5103506;28;20100;-65
2022/01/25 11:47:30;;;;;;;20.73;10.30;;;;;;;-4.11;59.89;99996.06;5094222;28;20365;-66
2022/01/25 11:49:59;;;;;;;15.52;8.13;;;;;;;-4.14;59.60;99990.88;5105473;28;20078;-66
2022/01/25 11:52:27;;;;;;;16.08;8.15;;;;;;;-4.12;60.00;99994.34;5101246;28;20569;-66
2022/01/25 11:55:25;;;;;;;14.68;7.90;;;;;;;-3.98;60.24;100000.19;5096566;28;20484;-64
2022/01/25 11:57:59;;;;;;;18.55;8.90;;;;;;;-3.93;59.52;99990.50;5089803;28;20039;-63
2022/01/25 12:00:46;;;;;;;18.30;6.70;;;;;;;-3.74;59.10;99990.19;5101322;28;20053;-65
2022/01/25 12:03:29;;;;;;;15.35;8.07;;;;;;;-3.76;58.86;99994.56;5107716;28;20061;-63
2022/01/25 12:06:04;;;;;;;14.43;8.07;;;;;;;-3.92;59.10;99988.78;5081983;28;20126;-64
2022/01/25 12:08:41;;;;;;;14.88;7.95;;;;;;;-3.97;59.09;99994.06;5099849;28;20036;-65
2022/01/25 12:11:40;;;;;;;15.80;8.38;;;;;;;-4.02;59.61;99993.31;5106694;28;20114;-64
2022/01/25 12:14:24;;;;;;;17.58;8.30;;;;;;;-4.08;59.82;99988.19;5085159;28;20364;-64
2022/01/25 12:16:50;;;;;;;15.15;7.60;;;;;;;-4.18;59.68;99990.94;5096804;28;20028;-64
2022/01/25 12:19:18;;;;;;;15.35;7.85;;;;;;;-4.21;59.88;99992.78;5107366;28;20485;-64
2022/01/25 12:21:47;;;;;;;16.40;8.07;;;;;;;-4.22;60.06;99993.63;5095395;28;20375;-64
2022/01/25 12:24:26;;;;;;;14.95;8.20;;;;;;;-4.25;59.91;99985.84;5102015;28;20036;-64
2022/01/25 12:27:06;;;;;;;15.95;8.38;;;;;;;-4.36;60.16;99980.78;5103431;28;20048;-63
2022/01/25 12:30:03;;;;;;;20.20;8.80;;;;;;;-4.36;60.31;99984.28;5093604;28;20125;-63
2022/01/25 12:32:36;;;;;;;14.88;7.95;;;;;;;-4.37;60.49;99987.78;5064420;28;20119;-64
2022/01/25 12:35:04;;;;;;;16.05;8.35;;;;;;;-4.38;60.07;99988.69;5104513;28;20028;-63
2022/01/25 12:37:45;;;;;;;16.02;7.25;;;;;;;-4.35;60.71;99972.06;5092851;28;20024;-62
2022/01/25 12:40:26;;;;;;;15.18;7.57;;;;;;;-4.33;60.77;99965.09;5101824;28;20092;-64
2022/01/25 12:42:57;;;;;;;14.65;7.97;;;;;;;-4.38;60.41;99970.38;5103447;28;20153;-62
2022/01/25 12:45:27;;;;;;;14.50;7.68;;;;;;;-4.45;59.89;99962.66;5092982;28;20052;-66
2022/01/25 12:47:54;;;;;;;14.13;7.05;;;;;;;-4.50;60.22;99960.13;5104413;28;20032;-63
2022/01/25 12:50:19;;;;;;;13.35;7.50;;;;;;;-4.53;60.17;99950.59;5099018;28;20564;-64
2022/01/25 12:52:46;;;;;;;13.27;7.82;;;;;;;-4.52;60.59;99954.94;5096934;28;20118;-63
2022/01/25 12:55:13;;;;;;;13.82;7.50;;;;;;;-4.47;60.74;99960.94;5106318;28;20498;-66
2022/01/25 12:57:52;;;;;;;14.43;7.32;;;;;;;-4.45;60.64;99952.22;5080323;28;20061;-64
2022/01/25 13:00:19;;;;;;;16.73;7.95;;;;;;;-4.47;59.76;99955.72;5104442;28;20032;-63
2022/01/25 13:02:44;;;;;;;15.73;7.75;;;;;;;-4.57;60.81;99935.88;5090478;28;20491;-62
2022/01/25 13:05:21;;;;;;;15.10;7.80;;;;;;;-4.56;60.79;99926.25;5095811;28;20032;-62
2022/01/25 13:07:48;;;;;;;16.80;8.25;;;;;;;-4.67;60.58;99931.66;5081966;28;20043;-63
2022/01/25 13:10:24;;;;;;;14.52;7.68;;;;;;;-4.63;60.63;99934.22;5103863;28;20020;-64